Time;durP1;ratioP1;P1;durP2;ratioP2;P2;SDS_P1;SDS_P2;PMS_P1;PMS_P2;Temp;Humidity;BMP_temperature;BMP_pressure;BME280_temperature;BME280_humidity;BME280_pressure;Samples;Min_cycle;Max_cycle;Signal;HPM_P1;HPM_P2
2022/04/01 00:06:33;;;;;;;16.30;12.13;;;7.70;85.30;;;;;;20914300;28;20697;-64
2022/04/01 00:16:35;;;;;;;16.27;12.13;;;7.60;84.20;;;;;;20914378;28;20245;-65
2022/04/01 00:26:37;;;;;;;15.37;11.83;;;7.50;84.30;;;;;;20913318;28;20235;-66
2022/04/01 00:36:38;;;;;;;16.00;12.27;;;7.50;85.20;;;;;;20912690;28;20232;-65
2022/04/01 00:46:45;;;;;;;15.07;12.13;;;7.30;84.60;;;;;;20912819;28;20643;-65
2022/04/01 00:56:47;;;;;;;16.70;12.97;;;7.30;85.30;;;;;;20911903;28;20244;-65
2022/04/01 01:06:52;;;;;;;15.27;12.60;;;7.30;85.20;;;;;;20911380;28;20566;-64
2022/04/01 01:16:54;;;;;;;15.70;12.20;;;7.30;85.30;;;;;;20913223;28;20232;-65
2022/04/01 01:26:57;;;;;;;17.70;12.33;;;7.20;85.40;;;;;;20927291;28;20215;-64
2022/04/01 01:37:00;;;;;;;15.60;12.27;;;7.20;86.20;;;;;;20927288;28;20227;-65
2022/04/01 01:47:02;;;;;;;17.47;13.30;;;7.20;86.50;;;;;;20926245;28;20228;-64
2022/04/01 01:57:05;;;;;;;16.73;13.00;;;7.00;86.00;;;;;;20924948;28;20756;-66
2022/04/01 02:07:09;;;;;;;17.23;12.87;;;6.80;86.20;;;;;;20925779;28;20622;-65
2022/04/01 02:17:11;;;;;;;18.27;13.23;;;6.60;86.70;;;;;;20934369;28;20330;-65
2022/04/01 02:27:14;;;;;;;18.17;13.57;;;6.60;86.70;;;;;;20935993;28;20204;-65
2022/04/01 02:37:19;;;;;;;17.03;13.70;;;6.40;87.80;;;;;;20928104;28;20236;-66
2022/04/01 02:47:20;;;;;;;17.67;13.17;;;6.40;88.20;;;;;;20925581;28;20239;-63
2022/04/01 02:57:22;;;;;;;18.73;14.10;;;6.40;88.30;;;;;;20920444;28;20239;-64
2022/04/01 03:07:24;;;;;;;17.03;12.07;;;6.40;88.50;;;;;;20919690;28;20659;-66
2022/04/01 03:17:26;;;;;;;17.93;12.87;;;6.10;88.90;;;;;;20919012;28;20239;-64
2022/04/01 03:27:27;;;;;;;15.93;11.60;;;6.10;89.80;;;;;;20918164;28;20577;-65
2022/04/01 03:37:29;;;;;;;16.30;12.10;;;5.50;89.60;;;;;;20917317;28;20266;-64
2022/04/01 03:47:50;;;;;;;14.87;10.77;;;5.50;90.10;;;;;;20916610;28;20289;-64
2022/04/01 03:57:55;;;;;;;17.27;11.80;;;5.20;90.40;;;;;;20915542;28;20243;-64
2022/04/01 04:07:58;;;;;;;15.80;11.50;;;5.00;90.80;;;;;;20914876;28;20200;-64
2022/04/01 04:18:05;;;;;;;13.90;10.67;;;5.00;90.80;;;;;;20914240;28;20235;-65
2022/04/01 04:28:10;;;;;;;17.57;12.20;;;5.00;91.30;;;;;;20914222;28;20204;-64
2022/04/01 04:38:13;;;;;;;18.03;11.13;;;5.00;91.40;;;;;;20913328;28;20228;-63
2022/04/01 04:48:17;;;;;;;19.80;11.37;;;5.00;91.40;;;;;;20909549;28;20226;-64
2022/04/01 04:58:22;;;;;;;14.60;10.97;;;5.00;91.40;;;;;;20911215;28;20241;-63
2022/04/01 05:08:40;;;;;;;15.40;10.77;;;5.00;91.90;;;;;;20911270;28;20546;-63
2022/04/01 05:18:58;;;;;;;15.70;10.90;;;5.00;91.50;;;;;;20910854;28;20235;-63
2022/04/01 05:29:02;;;;;;;14.77;10.53;;;5.00;91.70;;;;;;20910038;28;20208;-63
2022/04/01 05:39:11;;;;;;;13.50;10.27;;;4.90;91.80;;;;;;20908514;28;20231;-64
2022/04/01 05:49:13;;;;;;;15.67;10.87;;;4.90;91.70;;;;;;20910340;28;20289;-64
2022/04/01 05:59:16;;;;;;;21.90;9.83;;;4.90;92.00;;;;;;20908965;28;20235;-63
2022/04/01 06:09:47;;;;;;;14.03;9.03;;;4.90;91.90;;;;;;20918738;28;20663;-64
2022/04/01 06:19:51;;;;;;;13.40;9.40;;;5.00;92.20;;;;;;20924258;28;20698;-67
2022/04/01 06:30:05;;;;;;;13.67;9.93;;;4.90;91.90;;;;;;20924461;28;20206;-64
2022/04/01 06:40:14;;;;;;;15.03;9.17;;;4.90;91.80;;;;;;20922193;28;20322;-66
2022/04/01 06:50:16;;;;;;;16.47;9.20;;;4.80;92.00;;;;;;20880475;28;20617;-68
2022/04/01 07:00:18;;;;;;;11.73;8.53;;;4.80;92.30;;;;;;20919170;28;20274;-65
2022/04/01 07:10:20;;;;;;;14.70;10.73;;;4.80;92.50;;;;;;20843645;28;20213;-66
2022/04/01 07:20:22;;;;;;;13.63;9.10;;;4.80;92.60;;;;;;20888342;28;20239;-64
2022/04/01 07:30:25;;;;;;;17.13;11.63;;;4.90;92.60;;;;;;20874731;28;20210;-71
2022/04/01 07:40:27;;;;;;;13.07;9.50;;;5.00;92.60;;;;;;20915638;28;20717;-63
2022/04/01 07:50:29;;;;;;;10.57;7.47;;;5.20;92.40;;;;;;20849271;28;20319;-66
2022/04/01 08:00:31;;;;;;;11.70;8.50;;;5.40;92.10;;;;;;20836778;28;20250;-68
2022/04/01 08:10:33;;;;;;;13.10;9.40;;;5.40;91.90;;;;;;20843180;28;20207;-62
2022/04/01 08:20:35;;;;;;;15.53;10.40;;;5.50;92.00;;;;;;20913138;28;20236;-65
2022/04/01 08:30:38;;;;;;;14.50;10.27;;;5.60;91.80;;;;;;20912246;28;20212;-68
2022/04/01 08:40:40;;;;;;;13.77;10.20;;;5.70;91.70;;;;;;20911447;28;20223;-67
2022/04/01 08:50:43;;;;;;;13.83;10.37;;;5.70;90.80;;;;;;20912268;28;20204;-68
2022/04/01 09:00:46;;;;;;;17.73;12.10;;;5.60;90.10;;;;;;20911527;28;20250;-68
2022/04/01 09:10:53;;;;;;;25.93;16.83;;;5.60;90.30;;;;;;20909306;28;20196;-70
2022/04/01 09:20:54;;;;;;;15.47;11.37;;;5.50;90.40;;;;;;20895281;28;20233;-69
2022/04/01 09:30:57;;;;;;;19.83;13.87;;;5.60;90.10;;;;;;20828111;28;20215;-67
2022/04/01 09:41:04;;;;;;;18.13;12.10;;;5.60;90.00;;;;;;20899852;28;20703;-70
2022/04/01 09:51:09;;;;;;;14.20;10.57;;;5.60;88.90;;;;;;20924339;28;20204;-71
2022/04/01 10:01:11;;;;;;;14.37;11.23;;;5.40;88.90;;;;;;20924151;28;20321;-70
2022/04/01 10:11:14;;;;;;;21.50;15.17;;;5.40;89.20;;;;;;20923389;28;20211;-70
2022/04/01 10:21:19;;;;;;;15.13;11.47;;;5.50;89.00;;;;;;20903982;28;20315;-67
2022/04/01 10:31:24;;;;;;;14.57;11.43;;;5.50;89.60;;;;;;20845213;28;20287;-62
2022/04/01 10:41:26;;;;;;;14.87;11.07;;;5.50;89.40;;;;;;20915952;28;20227;-60
2022/04/01 10:51:38;;;;;;;15.87;11.57;;;5.50;88.70;;;;;;20918215;28;20703;-64
2022/04/01 11:01:52;;;;;;;16.37;11.77;;;5.50;88.90;;;;;;20918992;28;20251;-65
2022/04/01 11:12:22;;;;;;;14.80;11.13;;;5.60;88.80;;;;;;20917261;28;20284;-63
2022/04/01 11:22:44;;;;;;;19.23;12.73;;;5.60;89.50;;;;;;20914609;28;20228;-62
2022/04/01 11:32:52;;;;;;;13.83;10.73;;;5.40;88.70;;;;;;20916470;28;20817;-63
2022/04/01 11:42:58;;;;;;;17.80;11.93;;;5.50;88.40;;;;;;20913333;28;20235;-63
2022/04/01 11:53:00;;;;;;;14.27;10.80;;;5.70;88.00;;;;;;20908106;28;20314;-63
2022/04/01 12:03:03;;;;;;;15.07;11.47;;;5.60;87.70;;;;;;20889950;28;20248;-66
2022/04/01 12:13:08;;;;;;;14.40;11.27;;;5.60;88.20;;;;;;20892799;28;20231;-67
2022/04/01 12:23:11;;;;;;;19.23;12.40;;;5.60;88.10;;;;;;20878106;28;20320;-63
2022/04/01 12:33:24;;;;;;;15.27;11.23;;;5.60;88.20;;;;;;20911514;28;20218;-63
2022/04/01 12:43:43;;;;;;;14.10;10.37;;;5.60;88.70;;;;;;20910262;28;20242;-65
2022/04/01 12:53:55;;;;;;;21.63;13.33;;;5.50;88.50;;;;;;20883366;28;20243;-62
2022/04/01 13:03:58;;;;;;;14.00;10.90;;;5.70;88.90;;;;;;20895778;28;20243;-63
2022/04/01 13:14:00;;;;;;;15.10;11.80;;;5.80;88.10;;;;;;20957788;28;20326;-65
2022/04/01 13:24:04;;;;;;;14.30;10.13;;;5.60;88.70;;;;;;20947554;28;20231;-65
2022/04/01 13:34:07;;;;;;;12.67;9.40;;;5.60;89.20;;;;;;21029024;28;20239;-69
2022/04/01 13:44:11;;;;;;;12.07;9.67;;;5.70;88.10;;;;;;21010713;28;20329;-68
2022/04/01 13:54:13;;;;;;;11.77;9.43;;;5.60;87.70;;;;;;20925368;28;20701;-66
2022/04/01 14:04:15;;;;;;;12.23;9.53;;;5.60;87.60;;;;;;20923741;28;20692;-67
2022/04/01 14:14:18;;;;;;;13.90;10.23;;;5.60;88.20;;;;;;20921777;28;20211;-68
2022/04/01 14:24:19;;;;;;;14.33;10.83;;;5.60;87.10;;;;;;20881369;28;20231;-68
2022/04/01 14:34:31;;;;;;;13.03;10.53;;;5.60;88.00;;;;;;20922412;28;20245;-67
2022/04/01 14:44:32;;;;;;;12.97;10.43;;;5.60;87.10;;;;;;20841871;28;20700;-70
2022/04/01 14:54:35;;;;;;;12.57;10.47;;;5.60;87.40;;;;;;20840273;28;20570;-68
2022/04/01 15:04:38;;;;;;;12.63;9.90;;;5.50;87.60;;;;;;20837775;28;20243;-66
2022/04/01 15:14:39;;;;;;;12.73;10.30;;;5.30;86.90;;;;;;20864283;28;20200;-70
2022/04/01 15:24:41;;;;;;;13.23;10.40;;;5.40;87.20;;;;;;20918765;28;20235;-65
2022/04/01 15:40:20;;;;;;;14.57;10.60;;;5.40;87.10;;;;;;21236606;27;20567;-64
2022/04/01 15:50:23;;;;;;;14.63;10.90;;;5.30;87.40;;;;;;21235956;27;20216;-62
2022/04/01 16:00:27;;;;;;;13.93;10.77;;;5.20;87.20;;;;;;21236871;27;20300;-70
2022/04/01 16:10:30;;;;;;;15.60;10.73;;;5.20;87.30;;;;;;21234131;27;20240;-64
2022/04/01 16:20:32;;;;;;;15.03;11.80;;;5.10;87.30;;;;;;21233261;27;20237;-63
2022/04/01 16:30:35;;;;;;;14.70;10.77;;;5.20;87.20;;;;;;21232539;27;20244;-63
2022/04/01 16:40:37;;;;;;;13.00;10.90;;;5.00;86.80;;;;;;21231982;27;20236;-64
2022/04/01 16:50:39;;;;;;;14.83;10.77;;;4.90;87.00;;;;;;21180061;27;20247;-66
2022/04/01 17:00:41;;;;;;;14.07;11.07;;;4.80;87.10;;;;;;21174316;28;20560;-64
2022/04/01 17:21:03;;;;;;;15.03;11.50;;;4.70;87.60;;;;;;21101608;28;20668;-62
2022/04/01 17:31:05;;;;;;;17.60;12.53;;;4.80;88.60;;;;;;21170795;28;20317;-64
2022/04/01 17:41:10;;;;;;;16.03;11.97;;;4.70;88.70;;;;;;21169836;28;20220;-64
2022/04/01 17:51:12;;;;;;;14.10;11.47;;;4.60;89.00;;;;;;21168336;28;20233;-66
2022/04/01 18:01:14;;;;;;;16.43;11.10;;;4.70;88.50;;;;;;21168626;27;20216;-64
2022/04/01 18:11:16;;;;;;;13.70;10.30;;;5.70;90.00;;;;;;21167578;28;20239;-68
2022/04/01 18:21:22;;;;;;;15.13;10.17;;;4.70;89.30;;;;;;21082608;28;20558;-68
2022/04/01 18:31:38;;;;;;;14.07;9.90;;;4.70;89.30;;;;;;21081149;28;20230;-66
2022/04/01 18:41:41;;;;;;;12.97;9.77;;;4.70;89.10;;;;;;21080677;28;20242;-62
2022/04/01 18:59:20;;;;;;;15.77;10.33;;;4.70;88.90;;;;;;20982383;28;20566;-65
2022/04/01 19:09:50;;;;;;;15.97;10.87;;;4.60;89.50;;;;;;20984514;28;20674;-65
2022/04/01 19:19:53;;;;;;;15.83;11.47;;;4.60;89.20;;;;;;20995107;28;20214;-64
2022/04/01 19:29:55;;;;;;;16.63;11.27;;;4.60;90.00;;;;;;20981734;28;20235;-63
2022/04/01 19:40:00;;;;;;;16.57;11.53;;;4.60;89.70;;;;;;20977069;28;20212;-64
2022/04/01 19:50:03;;;;;;;15.73;11.60;;;4.60;90.10;;;;;;20976633;28;20234;-66
2022/04/01 20:00:07;;;;;;;15.17;11.30;;;4.60;89.60;;;;;;20976100;28;20207;-64
2022/04/01 20:10:10;;;;;;;14.20;10.90;;;4.60;89.60;;;;;;20923338;28;20286;-65
2022/04/01 20:20:13;;;;;;;15.30;9.93;;;4.60;90.10;;;;;;20919731;28;20207;-65
2022/04/01 20:30:15;;;;;;;14.30;10.20;;;4.60;90.10;;;;;;20919160;28;20236;-63
2022/04/01 20:40:17;;;;;;;12.40;8.93;;;4.70;89.80;;;;;;20917892;28;20301;-66
2022/04/01 20:50:21;;;;;;;15.13;8.90;;;4.60;89.70;;;;;;20916820;28;20240;-64
2022/04/01 21:00:23;;;;;;;15.60;9.43;;;4.70;90.00;;;;;;20917367;28;20214;-64
2022/04/01 21:10:25;;;;;;;13.20;8.23;;;4.70;89.60;;;;;;20916231;28;20247;-65
2022/04/01 21:20:26;;;;;;;14.53;8.73;;;4.70;90.10;;;;;;20915909;28;20549;-63
2022/04/01 21:30:28;;;;;;;12.43;8.67;;;4.70;89.90;;;;;;20916171;28;20242;-67
2022/04/01 21:40:31;;;;;;;10.73;8.20;;;4.60;89.60;;;;;;20833549;28;20295;-64
2022/04/01 21:50:33;;;;;;;9.93;7.73;;;4.60;90.20;;;;;;20832879;28;20319;-68
2022/04/01 22:00:44;;;;;;;14.00;7.97;;;4.70;90.10;;;;;;20832966;28;20217;-63
2022/04/01 22:10:46;;;;;;;14.97;8.07;;;4.70;90.10;;;;;;20831536;28;20242;-65
2022/04/01 22:20:48;;;;;;;9.57;7.40;;;4.80;90.10;;;;;;20831041;28;20296;-62
2022/04/01 22:30:50;;;;;;;9.73;7.30;;;4.80;90.30;;;;;;20830807;28;20243;-65
2022/04/01 22:40:52;;;;;;;9.83;7.50;;;;;;;;;;20830229;28;20247;-63
2022/04/01 22:50:57;;;;;;;10.73;7.43;;;4.70;90.10;;;;;;20829293;28;20739;-64
2022/04/01 23:00:59;;;;;;;9.73;6.53;;;4.70;90.10;;;;;;20829575;28;20577;-68
2022/04/01 23:11:01;;;;;;;13.27;7.57;;;4.70;90.30;;;;;;20828628;28;20260;-63
2022/04/01 23:21:03;;;;;;;14.77;8.30;;;4.60;90.10;;;;;;20828400;28;20211;-67
2022/04/01 23:31:04;;;;;;;10.53;6.77;;;4.60;90.20;;;;;;20828296;28;20327;-62
2022/04/01 23:41:07;;;;;;;8.57;6.50;;;4.70;90.10;;;;;;20832425;28;20228;-63
2022/04/01 23:51:09;;;;;;;10.30;6.10;;;4.70;90.40;;;;;;20842248;28;20279;-65
